sensor_id;sensor_type;location;lat;lon;timestamp;P1;durP1;ratioP1;P2;durP2;ratioP2
66421;SDS011;53228;51.380;0.098;2023-11-19T00:00:31;22.10;;;2.78;;
66421;SDS011;53228;51.380;0.098;2023-11-19T00:02:58;18.48;;;3.53;;
66421;SDS011;53228;51.380;0.098;2023-11-19T00:05:26;23.08;;;3.03;;
66421;SDS011;53228;51.380;0.098;2023-11-19T00:07:54;19.25;;;3.00;;
66421;SDS011;53228;51.380;0.098;2023-11-19T00:10:22;16.65;;;2.65;;
66421;SDS011;53228;51.380;0.098;2023-11-19T00:12:50;21.10;;;3.42;;
66421;SDS011;53228;51.380;0.098;2023-11-19T00:15:18;22.40;;;3.35;;
66421;SDS011;53228;51.380;0.098;2023-11-19T00:17:47;15.68;;;2.50;;
66421;SDS011;53228;51.380;0.098;2023-11-19T00:20:19;25.20;;;3.08;;
66421;SDS011;53228;51.380;0.098;2023-11-19T00:22:49;20.98;;;3.03;;
66421;SDS011;53228;51.380;0.098;2023-11-19T00:27:52;28.58;;;3.85;;
66421;SDS011;53228;51.380;0.098;2023-11-19T00:30:21;19.90;;;2.60;;
66421;SDS011;53228;51.380;0.098;2023-11-19T00:32:48;22.48;;;4.10;;
66421;SDS011;53228;51.380;0.098;2023-11-19T00:35:16;19.95;;;2.75;;
66421;SDS011;53228;51.380;0.098;2023-11-19T00:37:44;16.88;;;2.83;;
66421;SDS011;53228;51.380;0.098;2023-11-19T00:40:13;26.80;;;2.97;;
66421;SDS011;53228;51.380;0.098;2023-11-19T00:42:43;15.88;;;3.05;;
66421;SDS011;53228;51.380;0.098;2023-11-19T00:45:11;22.55;;;2.35;;
66421;SDS011;53228;51.380;0.098;2023-11-19T00:47:40;23.98;;;3.20;;
66421;SDS011;53228;51.380;0.098;2023-11-19T00:50:08;17.48;;;2.53;;
66421;SDS011;53228;51.380;0.098;2023-11-19T00:52:37;15.55;;;2.30;;
66421;SDS011;53228;51.380;0.098;2023-11-19T00:55:05;18.52;;;3.00;;
66421;SDS011;53228;51.380;0.098;2023-11-19T00:57:34;23.83;;;3.17;;
66421;SDS011;53228;51.380;0.098;2023-11-19T01:00:03;22.55;;;1.98;;
66421;SDS011;53228;51.380;0.098;2023-11-19T01:02:47;31.15;;;3.63;;
66421;SDS011;53228;51.380;0.098;2023-11-19T01:05:19;21.13;;;2.35;;
66421;SDS011;53228;51.380;0.098;2023-11-19T01:07:49;19.63;;;3.13;;
66421;SDS011;53228;51.380;0.098;2023-11-19T01:10:19;20.75;;;2.72;;
66421;SDS011;53228;51.380;0.098;2023-11-19T01:12:47;12.73;;;1.92;;
66421;SDS011;53228;51.380;0.098;2023-11-19T01:15:15;19.15;;;2.53;;
66421;SDS011;53228;51.380;0.098;2023-11-19T01:17:45;14.55;;;2.45;;
66421;SDS011;53228;51.380;0.098;2023-11-19T01:22:44;21.15;;;2.53;;
66421;SDS011;53228;51.380;0.098;2023-11-19T01:25:11;11.73;;;1.75;;
66421;SDS011;53228;51.380;0.098;2023-11-19T01:27:39;13.90;;;2.08;;
66421;SDS011;53228;51.380;0.098;2023-11-19T01:30:07;16.27;;;2.47;;
66421;SDS011;53228;51.380;0.098;2023-11-19T01:32:40;11.32;;;2.75;;
66421;SDS011;53228;51.380;0.098;2023-11-19T01:35:08;13.63;;;1.48;;
66421;SDS011;53228;51.380;0.098;2023-11-19T01:37:36;9.18;;;1.35;;
66421;SDS011;53228;51.380;0.098;2023-11-19T01:40:03;17.30;;;2.15;;
66421;SDS011;53228;51.380;0.098;2023-11-19T01:42:37;11.43;;;2.03;;
66421;SDS011;53228;51.380;0.098;2023-11-19T01:45:06;11.40;;;1.33;;
66421;SDS011;53228;51.380;0.098;2023-11-19T01:47:37;19.85;;;2.13;;
66421;SDS011;53228;51.380;0.098;2023-11-19T01:50:06;14.52;;;2.25;;
66421;SDS011;53228;51.380;0.098;2023-11-19T01:52:35;13.93;;;2.10;;
66421;SDS011;53228;51.380;0.098;2023-11-19T01:55:05;13.80;;;2.20;;
66421;SDS011;53228;51.380;0.098;2023-11-19T02:00:05;11.68;;;2.00;;
66421;SDS011;53228;51.380;0.098;2023-11-19T02:02:43;19.67;;;3.05;;
66421;SDS011;53228;51.380;0.098;2023-11-19T02:05:12;14.32;;;2.13;;
66421;SDS011;53228;51.380;0.098;2023-11-19T02:07:40;14.60;;;2.25;;
66421;SDS011;53228;51.380;0.098;2023-11-19T02:10:08;12.45;;;2.13;;
66421;SDS011;53228;51.380;0.098;2023-11-19T02:12:40;16.08;;;2.00;;
66421;SDS011;53228;51.380;0.098;2023-11-19T02:15:11;13.38;;;2.03;;
66421;SDS011;53228;51.380;0.098;2023-11-19T02:17:39;13.23;;;2.08;;
66421;SDS011;53228;51.380;0.098;2023-11-19T02:20:07;19.10;;;2.00;;
66421;SDS011;53228;51.380;0.098;2023-11-19T02:22:38;19.70;;;2.42;;
66421;SDS011;53228;51.380;0.098;2023-11-19T02:25:17;15.25;;;2.20;;
66421;SDS011;53228;51.380;0.098;2023-11-19T02:27:53;11.45;;;2.13;;
66421;SDS011;53228;51.380;0.098;2023-11-19T02:30:24;18.17;;;2.33;;
66421;SDS011;53228;51.380;0.098;2023-11-19T02:32:56;20.55;;;2.83;;
66421;SDS011;53228;51.380;0.098;2023-11-19T02:35:30;12.15;;;2.38;;
66421;SDS011;53228;51.380;0.098;2023-11-19T02:37:59;28.20;;;4.18;;
66421;SDS011;53228;51.380;0.098;2023-11-19T02:40:27;18.30;;;2.15;;
66421;SDS011;53228;51.380;0.098;2023-11-19T02:42:56;17.15;;;1.77;;
66421;SDS011;53228;51.380;0.098;2023-11-19T02:45:25;13.27;;;2.33;;
66421;SDS011;53228;51.380;0.098;2023-11-19T02:47:54;13.75;;;2.10;;
66421;SDS011;53228;51.380;0.098;2023-11-19T02:50:22;8.73;;;2.22;;
66421;SDS011;53228;51.380;0.098;2023-11-19T02:52:54;14.60;;;1.65;;
66421;SDS011;53228;51.380;0.098;2023-11-19T02:55:25;9.80;;;1.83;;
66421;SDS011;53228;51.380;0.098;2023-11-19T02:57:56;20.55;;;3.22;;
66421;SDS011;53228;51.380;0.098;2023-11-19T03:00:26;16.92;;;2.90;;
66421;SDS011;53228;51.380;0.098;2023-11-19T03:02:59;15.88;;;1.90;;
66421;SDS011;53228;51.380;0.098;2023-11-19T03:05:32;14.63;;;2.15;;
66421;SDS011;53228;51.380;0.098;2023-11-19T03:08:00;18.83;;;2.78;;
66421;SDS011;53228;51.380;0.098;2023-11-19T03:10:28;14.25;;;2.30;;
66421;SDS011;53228;51.380;0.098;2023-11-19T03:12:56;14.70;;;2.08;;
66421;SDS011;53228;51.380;0.098;2023-11-19T03:15:24;17.17;;;2.35;;
66421;SDS011;53228;51.380;0.098;2023-11-19T03:17:52;11.75;;;1.85;;
66421;SDS011;53228;51.380;0.098;2023-11-19T03:20:21;22.77;;;2.65;;
66421;SDS011;53228;51.380;0.098;2023-11-19T03:22:50;15.23;;;1.85;;
66421;SDS011;53228;51.380;0.098;2023-11-19T03:25:19;23.77;;;2.55;;
66421;SDS011;53228;51.380;0.098;2023-11-19T03:27:47;21.92;;;3.10;;
66421;SDS011;53228;51.380;0.098;2023-11-19T03:30:15;16.77;;;2.50;;
66421;SDS011;53228;51.380;0.098;2023-11-19T03:32:44;19.20;;;2.35;;
66421;SDS011;53228;51.380;0.098;2023-11-19T03:35:12;16.90;;;1.85;;
66421;SDS011;53228;51.380;0.098;2023-11-19T03:37:40;17.60;;;2.50;;
66421;SDS011;53228;51.380;0.098;2023-11-19T03:40:07;15.57;;;3.10;;
66421;SDS011;53228;51.380;0.098;2023-11-19T03:42:35;17.38;;;2.35;;
66421;SDS011;53228;51.380;0.098;2023-11-19T03:45:03;25.13;;;2.63;;
66421;SDS011;53228;51.380;0.098;2023-11-19T03:47:31;14.20;;;2.20;;
66421;SDS011;53228;51.380;0.098;2023-11-19T03:49:59;15.18;;;2.65;;
66421;SDS011;53228;51.380;0.098;2023-11-19T03:52:26;12.40;;;2.53;;
66421;SDS011;53228;51.380;0.098;2023-11-19T03:54:55;9.07;;;1.27;;
66421;SDS011;53228;51.380;0.098;2023-11-19T03:57:27;6.68;;;1.02;;
66421;SDS011;53228;51.380;0.098;2023-11-19T03:59:55;12.60;;;1.42;;
66421;SDS011;53228;51.380;0.098;2023-11-19T04:02:22;11.68;;;1.42;;
66421;SDS011;53228;51.380;0.098;2023-11-19T04:04:50;9.90;;;1.45;;
66421;SDS011;53228;51.380;0.098;2023-11-19T04:07:18;9.98;;;1.60;;
66421;SDS011;53228;51.380;0.098;2023-11-19T04:09:46;11.30;;;1.52;;
66421;SDS011;53228;51.380;0.098;2023-11-19T04:12:14;12.60;;;1.40;;
66421;SDS011;53228;51.380;0.098;2023-11-19T04:14:41;18.10;;;2.22;;
66421;SDS011;53228;51.380;0.098;2023-11-19T04:17:09;17.52;;;1.80;;
66421;SDS011;53228;51.380;0.098;2023-11-19T04:19:37;17.00;;;2.45;;
66421;SDS011;53228;51.380;0.098;2023-11-19T04:22:06;15.80;;;2.45;;
66421;SDS011;53228;51.380;0.098;2023-11-19T04:24:34;16.88;;;2.00;;
66421;SDS011;53228;51.380;0.098;2023-11-19T04:27:05;15.52;;;2.25;;
66421;SDS011;53228;51.380;0.098;2023-11-19T04:29:33;18.15;;;2.47;;
66421;SDS011;53228;51.380;0.098;2023-11-19T04:32:01;13.63;;;1.48;;
66421;SDS011;53228;51.380;0.098;2023-11-19T04:34:29;16.25;;;2.05;;
66421;SDS011;53228;51.380;0.098;2023-11-19T04:36:56;18.38;;;1.92;;
66421;SDS011;53228;51.380;0.098;2023-11-19T04:39:24;22.63;;;2.42;;
66421;SDS011;53228;51.380;0.098;2023-11-19T04:41:52;16.35;;;2.45;;
66421;SDS011;53228;51.380;0.098;2023-11-19T04:44:20;13.05;;;2.22;;
66421;SDS011;53228;51.380;0.098;2023-11-19T04:46:48;17.30;;;2.70;;
66421;SDS011;53228;51.380;0.098;2023-11-19T04:49:16;17.00;;;2.72;;
66421;SDS011;53228;51.380;0.098;2023-11-19T04:51:46;26.88;;;2.78;;
66421;SDS011;53228;51.380;0.098;2023-11-19T04:54:17;23.05;;;2.28;;
66421;SDS011;53228;51.380;0.098;2023-11-19T04:56:45;12.70;;;2.40;;
66421;SDS011;53228;51.380;0.098;2023-11-19T04:59:14;17.02;;;2.65;;
66421;SDS011;53228;51.380;0.098;2023-11-19T05:01:46;15.80;;;2.10;;
66421;SDS011;53228;51.380;0.098;2023-11-19T05:04:14;15.63;;;2.25;;
66421;SDS011;53228;51.380;0.098;2023-11-19T05:06:42;19.92;;;2.45;;
66421;SDS011;53228;51.380;0.098;2023-11-19T05:09:10;23.33;;;2.80;;
66421;SDS011;53228;51.380;0.098;2023-11-19T05:11:40;19.73;;;2.25;;
66421;SDS011;53228;51.380;0.098;2023-11-19T05:16:40;16.33;;;2.05;;
66421;SDS011;53228;51.380;0.098;2023-11-19T05:19:10;29.33;;;2.45;;
66421;SDS011;53228;51.380;0.098;2023-11-19T05:21:37;15.65;;;1.92;;
66421;SDS011;53228;51.380;0.098;2023-11-19T05:24:05;17.90;;;2.45;;
66421;SDS011;53228;51.380;0.098;2023-11-19T05:26:33;16.05;;;2.05;;
66421;SDS011;53228;51.380;0.098;2023-11-19T05:29:00;14.93;;;2.67;;
66421;SDS011;53228;51.380;0.098;2023-11-19T05:31:28;10.38;;;1.75;;
66421;SDS011;53228;51.380;0.098;2023-11-19T05:33:57;14.80;;;2.17;;
66421;SDS011;53228;51.380;0.098;2023-11-19T05:36:25;16.98;;;3.35;;
66421;SDS011;53228;51.380;0.098;2023-11-19T05:38:52;17.35;;;1.27;;
66421;SDS011;53228;51.380;0.098;2023-11-19T05:41:20;12.20;;;1.42;;
66421;SDS011;53228;51.380;0.098;2023-11-19T05:43:48;8.40;;;1.15;;
66421;SDS011;53228;51.380;0.098;2023-11-19T05:46:15;8.23;;;1.30;;
66421;SDS011;53228;51.380;0.098;2023-11-19T05:48:47;12.00;;;1.55;;
66421;SDS011;53228;51.380;0.098;2023-11-19T05:51:15;10.52;;;1.67;;
66421;SDS011;53228;51.380;0.098;2023-11-19T05:53:43;11.98;;;1.90;;
66421;SDS011;53228;51.380;0.098;2023-11-19T05:56:13;7.50;;;1.30;;
66421;SDS011;53228;51.380;0.098;2023-11-19T05:58:43;15.70;;;1.90;;
66421;SDS011;53228;51.380;0.098;2023-11-19T06:01:12;12.13;;;1.80;;
66421;SDS011;53228;51.380;0.098;2023-11-19T06:03:40;12.90;;;2.50;;
66421;SDS011;53228;51.380;0.098;2023-11-19T06:06:10;12.40;;;2.17;;
66421;SDS011;53228;51.380;0.098;2023-11-19T06:08:39;14.25;;;2.00;;
66421;SDS011;53228;51.380;0.098;2023-11-19T06:11:06;14.60;;;2.33;;
66421;SDS011;53228;51.380;0.098;2023-11-19T06:13:34;9.40;;;1.40;;
66421;SDS011;53228;51.380;0.098;2023-11-19T06:16:01;11.70;;;1.70;;
66421;SDS011;53228;51.380;0.098;2023-11-19T06:18:30;14.52;;;2.33;;
66421;SDS011;53228;51.380;0.098;2023-11-19T06:20:58;19.13;;;2.40;;
66421;SDS011;53228;51.380;0.098;2023-11-19T06:23:26;16.20;;;2.67;;
66421;SDS011;53228;51.380;0.098;2023-11-19T06:25:53;12.93;;;1.80;;
66421;SDS011;53228;51.380;0.098;2023-11-19T06:28:21;12.85;;;1.52;;
66421;SDS011;53228;51.380;0.098;2023-11-19T06:30:48;6.15;;;1.80;;
66421;SDS011;53228;51.380;0.098;2023-11-19T06:33:16;13.63;;;1.90;;
66421;SDS011;53228;51.380;0.098;2023-11-19T06:35:44;14.30;;;1.95;;
66421;SDS011;53228;51.380;0.098;2023-11-19T06:38:11;17.88;;;2.10;;
66421;SDS011;53228;51.380;0.098;2023-11-19T06:40:39;10.73;;;2.10;;
66421;SDS011;53228;51.380;0.098;2023-11-19T06:43:08;13.68;;;1.73;;
66421;SDS011;53228;51.380;0.098;2023-11-19T06:45:36;16.15;;;1.85;;
66421;SDS011;53228;51.380;0.098;2023-11-19T06:48:04;12.25;;;2.17;;
66421;SDS011;53228;51.380;0.098;2023-11-19T06:50:32;12.13;;;1.77;;
66421;SDS011;53228;51.380;0.098;2023-11-19T06:53:00;19.83;;;2.03;;
66421;SDS011;53228;51.380;0.098;2023-11-19T06:55:28;11.13;;;1.88;;
66421;SDS011;53228;51.380;0.098;2023-11-19T06:57:55;12.73;;;1.55;;
66421;SDS011;53228;51.380;0.098;2023-11-19T07:00:23;13.50;;;2.00;;
66421;SDS011;53228;51.380;0.098;2023-11-19T07:02:51;14.50;;;2.45;;
66421;SDS011;53228;51.380;0.098;2023-11-19T07:05:19;19.65;;;2.03;;
66421;SDS011;53228;51.380;0.098;2023-11-19T07:07:46;21.50;;;2.13;;
66421;SDS011;53228;51.380;0.098;2023-11-19T07:10:14;12.60;;;1.67;;
66421;SDS011;53228;51.380;0.098;2023-11-19T07:12:42;16.33;;;1.58;;
66421;SDS011;53228;51.380;0.098;2023-11-19T07:15:11;12.02;;;1.60;;
66421;SDS011;53228;51.380;0.098;2023-11-19T07:17:39;13.20;;;1.95;;
66421;SDS011;53228;51.380;0.098;2023-11-19T07:20:07;20.33;;;1.73;;
66421;SDS011;53228;51.380;0.098;2023-11-19T07:22:36;21.23;;;2.33;;
66421;SDS011;53228;51.380;0.098;2023-11-19T07:25:05;12.68;;;1.85;;
66421;SDS011;53228;51.380;0.098;2023-11-19T07:27:33;18.38;;;2.25;;
66421;SDS011;53228;51.380;0.098;2023-11-19T07:30:01;6.60;;;1.77;;
66421;SDS011;53228;51.380;0.098;2023-11-19T07:32:28;11.80;;;1.50;;
66421;SDS011;53228;51.380;0.098;2023-11-19T07:34:56;12.35;;;2.08;;
66421;SDS011;53228;51.380;0.098;2023-11-19T07:37:24;17.55;;;2.22;;
66421;SDS011;53228;51.380;0.098;2023-11-19T07:39:51;17.38;;;2.45;;
66421;SDS011;53228;51.380;0.098;2023-11-19T07:42:19;15.90;;;1.70;;
66421;SDS011;53228;51.380;0.098;2023-11-19T07:44:47;16.55;;;2.78;;
66421;SDS011;53228;51.380;0.098;2023-11-19T07:47:14;17.33;;;2.25;;
66421;SDS011;53228;51.380;0.098;2023-11-19T07:49:42;21.25;;;2.63;;
66421;SDS011;53228;51.380;0.098;2023-11-19T07:52:11;18.85;;;1.90;;
66421;SDS011;53228;51.380;0.098;2023-11-19T07:54:42;12.50;;;2.60;;
66421;SDS011;53228;51.380;0.098;2023-11-19T07:57:10;12.82;;;1.73;;
66421;SDS011;53228;51.380;0.098;2023-11-19T07:59:37;15.68;;;2.15;;
66421;SDS011;53228;51.380;0.098;2023-11-19T08:02:06;11.43;;;1.77;;
66421;SDS011;53228;51.380;0.098;2023-11-19T08:04:34;11.63;;;2.10;;
66421;SDS011;53228;51.380;0.098;2023-11-19T08:07:02;15.77;;;2.22;;
66421;SDS011;53228;51.380;0.098;2023-11-19T08:09:29;13.80;;;2.03;;
66421;SDS011;53228;51.380;0.098;2023-11-19T08:11:57;5.63;;;1.27;;
66421;SDS011;53228;51.380;0.098;2023-11-19T08:14:25;2.85;;;1.52;;
66421;SDS011;53228;51.380;0.098;2023-11-19T08:16:53;9.00;;;1.75;;
66421;SDS011;53228;51.380;0.098;2023-11-19T08:19:20;16.92;;;1.88;;
66421;SDS011;53228;51.380;0.098;2023-11-19T08:21:48;13.57;;;1.70;;
66421;SDS011;53228;51.380;0.098;2023-11-19T08:24:16;13.50;;;1.85;;
66421;SDS011;53228;51.380;0.098;2023-11-19T08:26:43;12.90;;;1.60;;
66421;SDS011;53228;51.380;0.098;2023-11-19T08:29:11;10.48;;;1.77;;
66421;SDS011;53228;51.380;0.098;2023-11-19T08:31:39;8.75;;;1.27;;
66421;SDS011;53228;51.380;0.098;2023-11-19T08:34:06;12.32;;;1.77;;
66421;SDS011;53228;51.380;0.098;2023-11-19T08:36:36;11.18;;;1.42;;
66421;SDS011;53228;51.380;0.098;2023-11-19T08:39:04;16.70;;;1.73;;
66421;SDS011;53228;51.380;0.098;2023-11-19T08:41:31;5.80;;;1.33;;
66421;SDS011;53228;51.380;0.098;2023-11-19T08:44:00;14.63;;;1.27;;
66421;SDS011;53228;51.380;0.098;2023-11-19T08:46:28;4.78;;;1.05;;
66421;SDS011;53228;51.380;0.098;2023-11-19T08:48:56;5.28;;;1.10;;
66421;SDS011;53228;51.380;0.098;2023-11-19T08:51:24;5.85;;;0.75;;
66421;SDS011;53228;51.380;0.098;2023-11-19T08:53:52;3.85;;;0.63;;
66421;SDS011;53228;51.380;0.098;2023-11-19T08:56:19;6.10;;;0.88;;
66421;SDS011;53228;51.380;0.098;2023-11-19T08:58:47;5.63;;;0.70;;
66421;SDS011;53228;51.380;0.098;2023-11-19T09:01:15;5.72;;;0.80;;
66421;SDS011;53228;51.380;0.098;2023-11-19T09:03:42;5.65;;;0.70;;
66421;SDS011;53228;51.380;0.098;2023-11-19T09:06:10;3.53;;;0.60;;
66421;SDS011;53228;51.380;0.098;2023-11-19T09:08:38;2.97;;;0.30;;
66421;SDS011;53228;51.380;0.098;2023-11-19T09:11:08;8.07;;;0.90;;
66421;SDS011;53228;51.380;0.098;2023-11-19T09:13:36;6.07;;;0.63;;
66421;SDS011;53228;51.380;0.098;2023-11-19T09:16:04;3.90;;;0.93;;
66421;SDS011;53228;51.380;0.098;2023-11-19T09:18:32;5.53;;;1.50;;
66421;SDS011;53228;51.380;0.098;2023-11-19T09:20:59;6.97;;;0.80;;
66421;SDS011;53228;51.380;0.098;2023-11-19T09:23:27;7.30;;;1.15;;
66421;SDS011;53228;51.380;0.098;2023-11-19T09:25:57;5.03;;;1.38;;
66421;SDS011;53228;51.380;0.098;2023-11-19T09:28:25;8.05;;;0.63;;
66421;SDS011;53228;51.380;0.098;2023-11-19T09:30:52;3.90;;;0.57;;
66421;SDS011;53228;51.380;0.098;2023-11-19T09:33:21;4.55;;;1.20;;
66421;SDS011;53228;51.380;0.098;2023-11-19T09:35:49;6.25;;;0.70;;
66421;SDS011;53228;51.380;0.098;2023-11-19T09:38:16;4.95;;;0.65;;
66421;SDS011;53228;51.380;0.098;2023-11-19T09:40:44;8.35;;;0.90;;
66421;SDS011;53228;51.380;0.098;2023-11-19T09:43:12;6.88;;;0.70;;
66421;SDS011;53228;51.380;0.098;2023-11-19T09:45:58;3.63;;;0.80;;
66421;SDS011;53228;51.380;0.098;2023-11-19T09:48:37;4.30;;;1.60;;
66421;SDS011;53228;51.380;0.098;2023-11-19T09:51:06;4.53;;;0.70;;
66421;SDS011;53228;51.380;0.098;2023-11-19T09:53:35;7.10;;;0.93;;
66421;SDS011;53228;51.380;0.098;2023-11-19T09:56:06;3.45;;;0.95;;
66421;SDS011;53228;51.380;0.098;2023-11-19T09:58:41;7.55;;;1.20;;
66421;SDS011;53228;51.380;0.098;2023-11-19T10:01:08;3.90;;;0.70;;
66421;SDS011;53228;51.380;0.098;2023-11-19T10:03:45;4.82;;;0.90;;
66421;SDS011;53228;51.380;0.098;2023-11-19T10:06:15;5.25;;;0.85;;
66421;SDS011;53228;51.380;0.098;2023-11-19T10:08:46;4.45;;;1.23;;
66421;SDS011;53228;51.380;0.098;2023-11-19T10:11:24;2.72;;;0.70;;
66421;SDS011;53228;51.380;0.098;2023-11-19T10:13:53;1.85;;;0.70;;
66421;SDS011;53228;51.380;0.098;2023-11-19T10:16:24;2.22;;;0.47;;
66421;SDS011;53228;51.380;0.098;2023-11-19T10:18:56;3.30;;;0.50;;
66421;SDS011;53228;51.380;0.098;2023-11-19T10:21:24;0.77;;;0.40;;
66421;SDS011;53228;51.380;0.098;2023-11-19T10:23:53;1.00;;;0.30;;
66421;SDS011;53228;51.380;0.098;2023-11-19T10:26:23;1.33;;;0.30;;
66421;SDS011;53228;51.380;0.098;2023-11-19T10:28:51;1.35;;;0.40;;
66421;SDS011;53228;51.380;0.098;2023-11-19T10:31:19;0.35;;;0.03;;
66421;SDS011;53228;51.380;0.098;2023-11-19T10:33:56;1.70;;;0.20;;
66421;SDS011;53228;51.380;0.098;2023-11-19T10:36:37;0.63;;;0.20;;
66421;SDS011;53228;51.380;0.098;2023-11-19T10:39:08;1.98;;;0.30;;
66421;SDS011;53228;51.380;0.098;2023-11-19T10:41:39;0.70;;;0.20;;
66421;SDS011;53228;51.380;0.098;2023-11-19T10:44:08;1.05;;;0.15;;
66421;SDS011;53228;51.380;0.098;2023-11-19T10:46:40;2.88;;;0.35;;
66421;SDS011;53228;51.380;0.098;2023-11-19T10:49:09;0.30;;;0.20;;
66421;SDS011;53228;51.380;0.098;2023-11-19T10:51:39;0.90;;;0.40;;
66421;SDS011;53228;51.380;0.098;2023-11-19T10:54:17;1.73;;;1.23;;
66421;SDS011;53228;51.380;0.098;2023-11-19T10:56:47;0.35;;;0.20;;
66421;SDS011;53228;51.380;0.098;2023-11-19T10:59:22;0.15;;;0.10;;
66421;SDS011;53228;51.380;0.098;2023-11-19T11:01:57;0.10;;;0.10;;
66421;SDS011;53228;51.380;0.098;2023-11-19T11:04:27;1.27;;;0.20;;
66421;SDS011;53228;51.380;0.098;2023-11-19T11:06:59;1.48;;;0.20;;
66421;SDS011;53228;51.380;0.098;2023-11-19T11:09:29;0.30;;;0.10;;
66421;SDS011;53228;51.380;0.098;2023-11-19T11:11:58;1.42;;;0.10;;
66421;SDS011;53228;51.380;0.098;2023-11-19T11:14:27;0.13;;;0.10;;
66421;SDS011;53228;51.380;0.098;2023-11-19T11:16:56;0.75;;;0.17;;
66421;SDS011;53228;51.380;0.098;2023-11-19T11:19:25;0.00;;;0.00;;
66421;SDS011;53228;51.380;0.098;2023-11-19T11:21:53;0.10;;;0.10;;
66421;SDS011;53228;51.380;0.098;2023-11-19T11:33:02;0.40;;;0.17;;
66421;SDS011;53228;51.380;0.098;2023-11-19T11:35:47;1.55;;;0.17;;
66421;SDS011;53228;51.380;0.098;2023-11-19T11:38:22;0.45;;;0.10;;
66421;SDS011;53228;51.380;0.098;2023-11-19T11:43:47;1.15;;;0.20;;
66421;SDS011;53228;51.380;0.098;2023-11-19T11:49:07;0.10;;;0.10;;
66421;SDS011;53228;51.380;0.098;2023-11-19T11:57:00;1.13;;;0.30;;
66421;SDS011;53228;51.380;0.098;2023-11-19T11:59:45;1.35;;;0.10;;
66421;SDS011;53228;51.380;0.098;2023-11-19T12:02:15;1.35;;;0.10;;
66421;SDS011;53228;51.380;0.098;2023-11-19T12:04:49;2.20;;;0.20;;
66421;SDS011;53228;51.380;0.098;2023-11-19T12:07:20;3.35;;;0.20;;
66421;SDS011;53228;51.380;0.098;2023-11-19T12:09:53;1.80;;;0.30;;
66421;SDS011;53228;51.380;0.098;2023-11-19T12:12:35;0.55;;;0.35;;
66421;SDS011;53228;51.380;0.098;2023-11-19T12:15:06;0.03;;;0.03;;
66421;SDS011;53228;51.380;0.098;2023-11-19T12:20:07;1.20;;;0.17;;
66421;SDS011;53228;51.380;0.098;2023-11-19T12:22:38;0.28;;;0.25;;
66421;SDS011;53228;51.380;0.098;2023-11-19T12:25:07;0.20;;;0.13;;
66421;SDS011;53228;51.380;0.098;2023-11-19T12:27:39;0.10;;;0.10;;
66421;SDS011;53228;51.380;0.098;2023-11-19T12:30:08;1.00;;;0.20;;
66421;SDS011;53228;51.380;0.098;2023-11-19T12:32:41;1.02;;;0.00;;
66421;SDS011;53228;51.380;0.098;2023-11-19T12:35:10;0.10;;;0.00;;
66421;SDS011;53228;51.380;0.098;2023-11-19T12:40:23;0.10;;;0.10;;
66421;SDS011;53228;51.380;0.098;2023-11-19T12:42:52;0.22;;;0.10;;
66421;SDS011;53228;51.380;0.098;2023-11-19T12:45:22;0.40;;;0.22;;
66421;SDS011;53228;51.380;0.098;2023-11-19T12:48:04;0.38;;;0.10;;
66421;SDS011;53228;51.380;0.098;2023-11-19T12:50:54;1.52;;;0.10;;
66421;SDS011;53228;51.380;0.098;2023-11-19T12:53:23;0.00;;;0.00;;
66421;SDS011;53228;51.380;0.098;2023-11-19T12:55:52;0.03;;;0.03;;
66421;SDS011;53228;51.380;0.098;2023-11-19T12:58:33;0.43;;;0.15;;
66421;SDS011;53228;51.380;0.098;2023-11-19T13:01:03;0.38;;;0.10;;
66421;SDS011;53228;51.380;0.098;2023-11-19T13:03:35;1.10;;;0.20;;
66421;SDS011;53228;51.380;0.098;2023-11-19T13:06:06;0.35;;;0.30;;
66421;SDS011;53228;51.380;0.098;2023-11-19T13:08:47;0.47;;;0.30;;
66421;SDS011;53228;51.380;0.098;2023-11-19T13:11:31;2.00;;;0.60;;
66421;SDS011;53228;51.380;0.098;2023-11-19T13:14:01;1.17;;;0.57;;
66421;SDS011;53228;51.380;0.098;2023-11-19T13:16:32;1.85;;;0.30;;
66421;SDS011;53228;51.380;0.098;2023-11-19T13:19:00;2.17;;;0.30;;
66421;SDS011;53228;51.380;0.098;2023-11-19T13:21:28;2.30;;;0.25;;
66421;SDS011;53228;51.380;0.098;2023-11-19T13:23:57;0.75;;;0.30;;
66421;SDS011;53228;51.380;0.098;2023-11-19T13:26:24;2.30;;;0.52;;
66421;SDS011;53228;51.380;0.098;2023-11-19T13:28:52;3.60;;;0.60;;
66421;SDS011;53228;51.380;0.098;2023-11-19T13:31:19;1.45;;;0.50;;
66421;SDS011;53228;51.380;0.098;2023-11-19T13:33:47;2.53;;;0.50;;
66421;SDS011;53228;51.380;0.098;2023-11-19T13:36:15;1.50;;;0.50;;
66421;SDS011;53228;51.380;0.098;2023-11-19T13:38:43;6.47;;;0.75;;
66421;SDS011;53228;51.380;0.098;2023-11-19T13:41:12;7.18;;;0.85;;
66421;SDS011;53228;51.380;0.098;2023-11-19T13:43:40;3.00;;;0.50;;
66421;SDS011;53228;51.380;0.098;2023-11-19T13:46:08;4.00;;;0.60;;
66421;SDS011;53228;51.380;0.098;2023-11-19T13:48:39;6.40;;;0.82;;
66421;SDS011;53228;51.380;0.098;2023-11-19T13:51:07;4.18;;;0.75;;
66421;SDS011;53228;51.380;0.098;2023-11-19T13:53:37;4.82;;;0.88;;
66421;SDS011;53228;51.380;0.098;2023-11-19T13:56:07;3.47;;;0.40;;
66421;SDS011;53228;51.380;0.098;2023-11-19T13:58:35;1.52;;;0.40;;
66421;SDS011;53228;51.380;0.098;2023-11-19T14:01:04;1.00;;;0.40;;
66421;SDS011;53228;51.380;0.098;2023-11-19T14:03:32;3.97;;;0.50;;
66421;SDS011;53228;51.380;0.098;2023-11-19T14:06:00;2.58;;;1.33;;
66421;SDS011;53228;51.380;0.098;2023-11-19T14:08:28;3.22;;;0.40;;
66421;SDS011;53228;51.380;0.098;2023-11-19T14:10:56;1.35;;;0.60;;
66421;SDS011;53228;51.380;0.098;2023-11-19T14:13:24;2.65;;;0.80;;
66421;SDS011;53228;51.380;0.098;2023-11-19T14:15:52;2.95;;;0.50;;
66421;SDS011;53228;51.380;0.098;2023-11-19T14:18:20;8.27;;;0.70;;
66421;SDS011;53228;51.380;0.098;2023-11-19T14:20:47;5.05;;;1.17;;
66421;SDS011;53228;51.380;0.098;2023-11-19T14:23:15;4.05;;;0.70;;
66421;SDS011;53228;51.380;0.098;2023-11-19T14:25:43;4.43;;;0.90;;
66421;SDS011;53228;51.380;0.098;2023-11-19T14:28:10;4.70;;;0.80;;
66421;SDS011;53228;51.380;0.098;2023-11-19T14:30:38;3.55;;;0.77;;
66421;SDS011;53228;51.380;0.098;2023-11-19T14:33:05;2.25;;;1.15;;
66421;SDS011;53228;51.380;0.098;2023-11-19T14:35:34;2.35;;;0.40;;
66421;SDS011;53228;51.380;0.098;2023-11-19T14:38:02;2.50;;;0.70;;
66421;SDS011;53228;51.380;0.098;2023-11-19T14:40:32;4.68;;;1.02;;
66421;SDS011;53228;51.380;0.098;2023-11-19T14:43:03;2.80;;;0.68;;
66421;SDS011;53228;51.380;0.098;2023-11-19T14:45:30;3.40;;;0.50;;
66421;SDS011;53228;51.380;0.098;2023-11-19T14:48:10;1.33;;;0.60;;
66421;SDS011;53228;51.380;0.098;2023-11-19T14:50:38;4.05;;;0.50;;
66421;SDS011;53228;51.380;0.098;2023-11-19T14:53:05;4.63;;;0.57;;
66421;SDS011;53228;51.380;0.098;2023-11-19T14:55:33;3.15;;;0.60;;
66421;SDS011;53228;51.380;0.098;2023-11-19T14:58:01;4.38;;;0.80;;
66421;SDS011;53228;51.380;0.098;2023-11-19T15:00:36;4.03;;;0.98;;
66421;SDS011;53228;51.380;0.098;2023-11-19T15:03:04;5.15;;;0.80;;
66421;SDS011;53228;51.380;0.098;2023-11-19T15:05:31;5.00;;;0.88;;
66421;SDS011;53228;51.380;0.098;2023-11-19T15:07:59;3.97;;;0.70;;
66421;SDS011;53228;51.380;0.098;2023-11-19T15:10:26;4.05;;;0.63;;
66421;SDS011;53228;51.380;0.098;2023-11-19T15:12:54;2.83;;;0.65;;
66421;SDS011;53228;51.380;0.098;2023-11-19T15:15:22;2.47;;;0.50;;
66421;SDS011;53228;51.380;0.098;2023-11-19T15:20:20;4.65;;;0.65;;
66421;SDS011;53228;51.380;0.098;2023-11-19T15:22:48;2.60;;;0.32;;
66421;SDS011;53228;51.380;0.098;2023-11-19T15:25:16;3.42;;;0.45;;
66421;SDS011;53228;51.380;0.098;2023-11-19T15:27:43;0.88;;;0.25;;
66421;SDS011;53228;51.380;0.098;2023-11-19T15:30:11;2.85;;;0.40;;